createdAt,value
2022-08-27T00:02:35.572Z,20.00
2022-08-27T00:05:38.997Z,20.25
2022-08-27T00:08:43.172Z,23.00
2022-08-27T00:11:47.986Z,24.00
2022-08-27T00:14:51.908Z,20.00
2022-08-27T00:17:55.647Z,23.00
2022-08-27T00:20:59.068Z,22.00
2022-08-27T00:24:03.469Z,24.00
2022-08-27T00:27:08.347Z,25.20
2022-08-27T00:30:16.211Z,23.00
2022-08-27T00:33:20.163Z,24.00
2022-08-27T00:36:23.713Z,23.00
2022-08-27T00:39:27.772Z,22.60
2022-08-27T00:42:32.564Z,28.75
2022-08-27T00:45:40.649Z,29.00
2022-08-27T00:48:44.398Z,27.00
2022-08-27T00:51:53.636Z,24.60
2022-08-27T00:55:03.235Z,26.00
2022-08-27T00:58:15.838Z,28.00
2022-08-27T01:01:24.676Z,26.00
2022-08-27T01:04:29.825Z,26.00
2022-08-27T01:07:37.053Z,28.00
2022-08-27T01:10:41.095Z,28.00
2022-08-27T01:13:59.508Z,26.40
2022-08-27T01:17:05.412Z,27.80
2022-08-27T01:20:15.109Z,28.00
2022-08-27T01:23:25.941Z,24.20
2022-08-27T01:26:32.333Z,28.00
2022-08-27T01:29:36.243Z,26.00
2022-08-27T01:32:40.188Z,27.00
2022-08-27T01:35:45.418Z,26.00
2022-08-27T01:38:48.713Z,27.00
2022-08-27T01:41:53.947Z,25.00
2022-08-27T01:45:00.841Z,24.00
2022-08-27T01:48:07.869Z,25.00
2022-08-27T01:51:11.338Z,28.00
2022-08-27T01:54:14.693Z,28.00
2022-08-27T01:57:22.997Z,26.20
2022-08-27T02:00:32.669Z,26.00
2022-08-27T02:03:37.153Z,31.00
2022-08-27T02:06:40.563Z,28.00
2022-08-27T02:09:43.963Z,33.00
2022-08-27T02:12:49.617Z,30.00
2022-08-27T02:15:53.405Z,29.00
2022-08-27T02:18:56.952Z,29.75
2022-08-27T02:22:00.657Z,32.00
2022-08-27T02:25:04.255Z,30.00
2022-08-27T02:28:09.407Z,30.00
2022-08-27T02:31:13.034Z,30.40
2022-08-27T02:34:16.850Z,31.00
2022-08-27T02:37:20.178Z,31.00
2022-08-27T02:40:24.836Z,32.00
2022-08-27T02:43:29.810Z,32.00
2022-08-27T02:46:33.291Z,35.00
2022-08-27T02:49:37.081Z,32.40
2022-08-27T02:52:40.601Z,33.60
2022-08-27T02:55:44.113Z,33.00
2022-08-27T02:58:49.359Z,32.40
2022-08-27T03:01:53.149Z,31.00
2022-08-27T03:04:56.605Z,31.00
2022-08-27T03:08:00.506Z,31.00
2022-08-27T03:11:03.877Z,31.00
2022-08-27T03:14:09.746Z,33.00
2022-08-27T03:17:30.771Z,31.20
2022-08-27T03:20:34.537Z,35.00
2022-08-27T03:23:38.157Z,33.20
2022-08-27T03:26:42.061Z,32.20
2022-08-27T03:30:01.858Z,34.00
2022-08-27T03:33:08.278Z,37.00
2022-08-27T03:36:11.677Z,34.00
2022-08-27T03:39:15.361Z,34.00
2022-08-27T03:42:19.070Z,36.60
2022-08-27T03:45:23.901Z,32.60
2022-08-27T03:48:28.349Z,32.00
2022-08-27T03:51:31.780Z,37.40
2022-08-27T03:54:36.309Z,35.00
2022-08-27T03:57:39.632Z,33.40
2022-08-27T04:00:44.465Z,38.25
2022-08-27T04:03:48.102Z,37.00
2022-08-27T04:06:51.827Z,34.00
2022-08-27T04:09:55.150Z,43.25
2022-08-27T04:12:58.520Z,36.80
2022-08-27T04:16:03.213Z,34.20
2022-08-27T04:19:07.091Z,35.00
2022-08-27T04:22:10.592Z,34.00
2022-08-27T04:25:13.937Z,36.60
2022-08-27T04:28:19.352Z,34.40
2022-08-27T04:31:24.253Z,33.75
2022-08-27T04:34:27.905Z,34.00
2022-08-27T04:37:33.236Z,34.00
2022-08-27T04:40:55.883Z,33.20
2022-08-27T04:44:03.929Z,33.50
2022-08-27T04:47:08.805Z,35.00
2022-08-27T04:50:12.558Z,32.00
2022-08-27T04:53:18.769Z,36.60
2022-08-27T04:56:24.182Z,33.25
2022-08-27T04:59:27.457Z,32.00
2022-08-27T05:02:34.524Z,30.00
2022-08-27T05:05:38.715Z,30.00
2022-08-27T05:08:46.564Z,39.00
2022-08-27T05:11:52.542Z,32.00
2022-08-27T05:14:56.146Z,33.40
2022-08-27T05:18:01.018Z,35.60
2022-08-27T05:21:05.365Z,33.00
2022-08-27T05:24:10.133Z,31.00
2022-08-27T05:27:13.486Z,27.80
2022-08-27T05:30:17.135Z,30.00
2022-08-27T05:33:24.458Z,30.00
2022-08-27T05:36:30.980Z,31.00
2022-08-27T05:39:34.326Z,23.20
2022-08-27T05:42:37.674Z,27.00
2022-08-27T05:45:42.893Z,22.00
2022-08-27T05:48:48.000Z,26.60
2022-08-27T05:51:51.409Z,20.75
2022-08-27T05:54:55.298Z,21.50
2022-08-27T05:57:58.682Z,29.00
2022-08-27T06:01:10.054Z,21.60
2022-08-27T06:04:17.494Z,18.00
2022-08-27T06:07:21.453Z,20.00
2022-08-27T06:10:24.925Z,19.00
2022-08-27T06:13:28.980Z,17.00
2022-08-27T06:16:32.669Z,20.40
2022-08-27T06:19:37.562Z,16.20
2022-08-27T06:22:40.841Z,19.00
2022-08-27T06:25:44.460Z,20.00
2022-08-27T06:28:48.627Z,17.50
2022-08-27T06:31:53.551Z,17.00
2022-08-27T06:34:58.659Z,18.25
2022-08-27T06:38:02.051Z,18.00
2022-08-27T06:41:06.380Z,17.00
2022-08-27T06:44:21.171Z,20.00
2022-08-27T06:47:24.506Z,15.60
2022-08-27T06:50:29.554Z,20.00
2022-08-27T06:53:32.894Z,19.40
2022-08-27T06:56:37.064Z,16.00
2022-08-27T06:59:40.409Z,18.00
2022-08-27T07:02:44.986Z,19.60
2022-08-27T07:05:49.667Z,20.00
2022-08-27T07:08:53.634Z,18.80
2022-08-27T07:11:57.535Z,18.00
2022-08-27T07:15:01.069Z,22.00
2022-08-27T07:18:04.937Z,19.00
2022-08-27T07:21:12.621Z,22.00
2022-08-27T07:24:15.970Z,21.75
2022-08-27T07:27:20.730Z,22.00
2022-08-27T07:30:24.050Z,20.00
2022-08-27T07:33:28.293Z,20.00
2022-08-27T07:36:34.364Z,20.00
2022-08-27T07:39:37.790Z,19.00
2022-08-27T07:42:58.877Z,20.00
2022-08-27T07:46:04.119Z,19.00
2022-08-27T07:49:07.540Z,20.00
2022-08-27T07:52:13.333Z,19.75
2022-08-27T07:55:17.240Z,20.00
2022-08-27T07:58:20.675Z,19.00
2022-08-27T08:01:25.268Z,16.80
2022-08-27T08:04:28.898Z,19.40
2022-08-27T08:07:33.718Z,19.00
2022-08-27T08:10:37.889Z,19.50
2022-08-27T08:13:41.358Z,17.00
2022-08-27T08:16:45.291Z,19.00
2022-08-27T08:20:08.553Z,19.80
2022-08-27T08:23:14.697Z,17.00
2022-08-27T08:26:18.193Z,18.60
2022-08-27T08:29:22.162Z,17.00
2022-08-27T08:32:25.691Z,18.00
2022-08-27T08:35:35.102Z,18.00
2022-08-27T08:38:47.460Z,17.00
2022-08-27T08:41:54.093Z,17.00
2022-08-27T08:45:00.655Z,16.80
2022-08-27T08:48:09.603Z,17.00
2022-08-27T08:51:21.042Z,16.80
2022-08-27T08:54:31.563Z,16.00
2022-08-27T08:57:42.268Z,16.00
2022-08-27T09:00:49.799Z,16.00
2022-08-27T09:03:56.066Z,17.75
2022-08-27T09:07:04.096Z,15.60
2022-08-27T09:10:19.571Z,17.00
2022-08-27T09:13:26.994Z,16.00
2022-08-27T09:16:32.630Z,14.75
2022-08-27T09:19:36.269Z,11.20
2022-08-27T09:22:50.122Z,13.00
2022-08-27T09:25:54.881Z,12.00
2022-08-27T09:29:20.512Z,12.00
2022-08-27T09:32:26.497Z,13.00
2022-08-27T09:35:40.329Z,12.00
2022-08-27T09:38:57.942Z,11.20
2022-08-27T09:42:04.835Z,11.00
2022-08-27T09:45:09.969Z,10.00
2022-08-27T09:48:19.977Z,11.75
2022-08-27T09:51:26.212Z,11.20
2022-08-27T09:54:40.900Z,11.00
2022-08-27T09:57:45.682Z,10.00
2022-08-27T10:00:50.295Z,12.00
2022-08-27T10:04:05.608Z,12.50
2022-08-27T10:07:22.361Z,10.20
2022-08-27T10:10:34.793Z,12.00
2022-08-27T10:13:50.013Z,10.00
2022-08-27T10:17:07.533Z,9.00
2022-08-27T10:20:29.585Z,9.00
2022-08-27T10:23:43.506Z,9.20
2022-08-27T10:26:58.786Z,9.00
2022-08-27T10:30:09.002Z,10.00
2022-08-27T10:33:23.510Z,9.00
2022-08-27T10:36:40.387Z,9.00
2022-08-27T10:39:56.765Z,10.00
2022-08-27T10:43:12.746Z,9.00
2022-08-27T10:46:40.421Z,9.00
2022-08-27T10:50:02.752Z,9.00
2022-08-27T10:53:11.639Z,11.20
2022-08-27T10:56:20.226Z,9.40
2022-08-27T10:59:34.850Z,10.00
2022-08-27T11:02:45.596Z,10.25
2022-08-27T11:05:52.031Z,11.25
2022-08-27T11:09:00.596Z,10.50
2022-08-27T11:12:16.747Z,11.00
2022-08-27T11:15:24.425Z,11.00
2022-08-27T11:18:43.507Z,12.00
2022-08-27T11:21:53.064Z,11.00
2022-08-27T11:25:02.247Z,10.80
2022-08-27T11:28:07.506Z,11.00
2022-08-27T11:31:20.181Z,12.60
2022-08-27T11:34:33.761Z,13.00
2022-08-27T11:37:54.742Z,13.67
2022-08-27T11:41:18.812Z,11.00
2022-08-27T11:44:25.149Z,13.00
2022-08-27T11:47:30.023Z,13.00
2022-08-27T11:50:34.749Z,14.00
2022-08-27T11:53:41.359Z,11.60
2022-08-27T11:56:55.903Z,12.50
2022-08-27T12:00:01.137Z,11.20
2022-08-27T12:03:10.992Z,12.00
2022-08-27T12:06:27.359Z,10.40
2022-08-27T12:09:31.369Z,11.00
2022-08-27T12:12:45.273Z,13.00
2022-08-27T12:15:58.463Z,12.00
2022-08-27T12:19:22.178Z,11.00
2022-08-27T12:23:03.840Z,12.00
2022-08-27T12:26:28.379Z,11.00
2022-08-27T12:29:42.299Z,12.00
2022-08-27T12:32:51.364Z,11.40
2022-08-27T12:35:57.422Z,9.80
2022-08-27T12:39:04.382Z,11.00
2022-08-27T12:42:14.572Z,10.00
2022-08-27T12:45:23.424Z,11.40
2022-08-27T12:48:29.584Z,11.80
2022-08-27T12:51:36.345Z,11.00
2022-08-27T12:54:54.246Z,11.00
2022-08-27T12:58:13.441Z,11.00
2022-08-27T13:01:33.237Z,10.20
2022-08-27T13:04:40.750Z,9.00
2022-08-27T13:07:47.462Z,11.60
2022-08-27T13:10:52.429Z,11.00
2022-08-27T13:14:07.825Z,8.20
2022-08-27T13:17:15.861Z,9.00
2022-08-27T13:20:22.684Z,8.20
2022-08-27T13:23:28.138Z,10.00
2022-08-27T13:26:37.209Z,11.00
2022-08-27T13:29:42.753Z,8.80
2022-08-27T13:32:46.800Z,9.75
2022-08-27T13:35:51.151Z,9.50
2022-08-27T13:38:57.513Z,10.00
2022-08-27T13:42:05.480Z,10.00
2022-08-27T13:45:10.085Z,11.60
2022-08-27T13:48:14.680Z,10.80
2022-08-27T13:51:29.106Z,11.40
2022-08-27T13:54:34.703Z,11.00
2022-08-27T13:57:46.095Z,11.00
2022-08-27T14:00:49.667Z,10.00
2022-08-27T14:03:59.976Z,10.00
2022-08-27T14:07:11.701Z,11.00
2022-08-27T14:10:35.369Z,11.00
2022-08-27T14:13:43.971Z,11.50
2022-08-27T14:16:58.724Z,11.40
2022-08-27T14:20:04.407Z,11.00
2022-08-27T14:23:09.135Z,8.60
2022-08-27T14:26:12.488Z,10.60
2022-08-27T14:29:17.941Z,11.00
2022-08-27T14:32:21.657Z,13.40
2022-08-27T14:35:25.866Z,12.00
2022-08-27T14:38:34.088Z,12.00
2022-08-27T14:41:37.809Z,11.00
2022-08-27T14:44:43.126Z,12.00
2022-08-27T14:47:47.434Z,11.00
2022-08-27T14:50:51.148Z,11.00
2022-08-27T14:53:55.317Z,11.00
2022-08-27T14:56:59.238Z,11.60
2022-08-27T15:00:05.369Z,11.00
2022-08-27T15:03:09.081Z,11.40
2022-08-27T15:06:12.393Z,11.00
2022-08-27T15:09:15.729Z,11.00
2022-08-27T15:12:26.518Z,11.00
2022-08-27T15:15:31.765Z,10.00
2022-08-27T15:18:35.175Z,10.00
2022-08-27T15:21:40.497Z,11.00
2022-08-27T15:24:46.853Z,10.40
2022-08-27T15:27:50.337Z,11.60
2022-08-27T15:30:55.120Z,14.50
2022-08-27T15:33:58.505Z,12.00
2022-08-27T15:37:03.181Z,14.00
2022-08-27T15:40:07.680Z,10.80
2022-08-27T15:43:11.293Z,12.00
2022-08-27T15:46:16.675Z,12.80
2022-08-27T15:49:20.109Z,13.00
2022-08-27T15:52:24.529Z,12.40
2022-08-27T15:55:30.337Z,18.00
2022-08-27T15:58:35.339Z,14.50
2022-08-27T16:01:40.501Z,16.60
2022-08-27T16:04:44.908Z,19.00
2022-08-27T16:07:52.394Z,20.00
2022-08-27T16:10:56.127Z,18.60
2022-08-27T16:13:59.692Z,18.00
2022-08-27T16:17:04.368Z,17.00
2022-08-27T16:20:14.973Z,18.00
2022-08-27T16:23:20.133Z,17.50
2022-08-27T16:26:23.457Z,16.60
2022-08-27T16:29:26.747Z,17.00
2022-08-27T16:32:33.442Z,18.00
2022-08-27T16:35:37.018Z,17.20
2022-08-27T16:38:40.485Z,16.00
2022-08-27T16:41:43.851Z,18.00
2022-08-27T16:44:47.036Z,19.00
2022-08-27T16:48:10.128Z,17.00
2022-08-27T16:51:17.704Z,18.50
2022-08-27T16:54:21.859Z,18.00
2022-08-27T16:57:27.443Z,17.00
2022-08-27T17:00:32.634Z,19.00
2022-08-27T17:04:06.811Z,17.00
2022-08-27T17:07:07.216Z,20.00
2022-08-27T17:10:12.352Z,19.00
2022-08-27T17:13:17.626Z,18.00
2022-08-27T17:16:23.295Z,18.40
2022-08-27T17:19:28.136Z,19.50
2022-08-27T17:22:31.954Z,18.60
2022-08-27T17:25:35.228Z,20.00
2022-08-27T17:28:39.852Z,19.00
2022-08-27T17:31:44.762Z,21.40
2022-08-27T17:34:49.503Z,14.00
2022-08-27T17:37:53.017Z,15.60
2022-08-27T17:40:56.541Z,17.00
2022-08-27T17:44:02.232Z,16.00
2022-08-27T17:47:07.799Z,16.00
2022-08-27T17:50:12.661Z,19.00
2022-08-27T17:53:16.125Z,15.60
2022-08-27T17:56:22.018Z,17.80
2022-08-27T17:59:25.901Z,17.00
2022-08-27T18:02:31.307Z,19.00
2022-08-27T18:05:35.976Z,18.40
2022-08-27T18:08:39.370Z,17.60
2022-08-27T18:11:44.499Z,18.80
2022-08-27T18:14:53.206Z,18.40
2022-08-27T18:17:57.340Z,18.25
2022-08-27T18:21:02.617Z,20.00
2022-08-27T18:24:06.697Z,20.00
2022-08-27T18:27:10.458Z,20.00
2022-08-27T18:30:14.917Z,18.40
2022-08-27T18:33:18.225Z,17.00
2022-08-27T18:36:23.056Z,18.00
2022-08-27T18:39:26.625Z,17.00
2022-08-27T18:42:31.349Z,18.40
2022-08-27T18:45:37.063Z,20.00
2022-08-27T18:48:41.924Z,20.00
2022-08-27T18:51:51.990Z,18.00
2022-08-27T18:54:56.112Z,19.20
2022-08-27T18:57:59.430Z,19.75
2022-08-27T19:01:04.341Z,22.00
2022-08-27T19:04:07.937Z,19.40
2022-08-27T19:07:12.885Z,19.20
2022-08-27T19:10:16.176Z,18.00
2022-08-27T19:13:19.666Z,21.00
2022-08-27T19:16:26.331Z,23.00
2022-08-27T19:19:30.088Z,22.00
2022-08-27T19:22:35.299Z,24.00
2022-08-27T19:25:38.715Z,22.00
2022-08-27T19:28:45.186Z,20.00
2022-08-27T19:31:48.687Z,19.40
2022-08-27T19:34:52.511Z,22.00
2022-08-27T19:37:57.808Z,23.60
2022-08-27T19:41:01.824Z,19.20
2022-08-27T19:44:05.232Z,20.00
2022-08-27T19:47:10.471Z,18.00
2022-08-27T19:50:20.316Z,17.60
2022-08-27T19:53:25.475Z,16.00
2022-08-27T19:56:32.581Z,19.00
2022-08-27T19:59:35.856Z,18.50
2022-08-27T20:02:40.138Z,19.50
2022-08-27T20:05:44.253Z,18.40
2022-08-27T20:08:48.975Z,16.00
2022-08-27T20:11:54.832Z,15.40
2022-08-27T20:14:58.159Z,13.00
2022-08-27T20:18:01.444Z,17.00
2022-08-27T20:21:05.938Z,20.00
2022-08-27T20:24:11.597Z,18.00
2022-08-27T20:27:14.952Z,22.33
2022-08-27T20:30:20.624Z,19.80
2022-08-27T20:33:23.897Z,23.00
2022-08-27T20:36:30.049Z,19.80
2022-08-27T20:39:35.356Z,18.00
2022-08-27T20:42:38.690Z,18.80
2022-08-27T20:45:42.301Z,17.20
2022-08-27T20:48:45.879Z,18.00
2022-08-27T20:51:53.495Z,18.00
2022-08-27T20:55:09.887Z,16.20
2022-08-27T20:58:30.957Z,20.00
2022-08-27T21:01:35.032Z,17.00
2022-08-27T21:04:39.190Z,16.00
2022-08-27T21:07:44.635Z,20.00
2022-08-27T21:10:52.065Z,20.00
2022-08-27T21:13:56.735Z,20.00
2022-08-27T21:17:00.296Z,19.20
2022-08-27T21:20:05.800Z,16.00
2022-08-27T21:23:09.640Z,12.40
2022-08-27T21:26:15.255Z,16.00
2022-08-27T21:29:19.790Z,15.00
2022-08-27T21:32:23.082Z,14.00
2022-08-27T21:35:30.179Z,14.00
2022-08-27T21:38:33.958Z,20.00
2022-08-27T21:41:39.295Z,16.00
2022-08-27T21:44:42.881Z,20.00
2022-08-27T21:47:46.055Z,11.40
2022-08-27T21:50:52.955Z,12.00
2022-08-27T21:53:56.758Z,9.40
2022-08-27T21:57:03.221Z,19.40
2022-08-27T22:00:19.011Z,16.40
2022-08-27T22:03:24.251Z,16.00
2022-08-27T22:06:27.646Z,20.00
2022-08-27T22:09:31.070Z,13.00
2022-08-27T22:12:35.765Z,13.00
2022-08-27T22:15:39.542Z,15.75
2022-08-27T22:18:43.104Z,16.00
2022-08-27T22:21:47.088Z,14.00
2022-08-27T22:24:50.461Z,19.00
2022-08-27T22:27:56.881Z,19.40
2022-08-27T22:31:01.034Z,18.75
2022-08-27T22:34:05.308Z,16.50
2022-08-27T22:37:08.764Z,14.25
2022-08-27T22:40:18.487Z,11.60
2022-08-27T22:43:24.368Z,12.20
2022-08-27T22:46:27.830Z,14.40
2022-08-27T22:49:31.156Z,11.25
2022-08-27T22:52:34.492Z,11.20
2022-08-27T22:55:38.026Z,12.80
2022-08-27T22:58:45.783Z,15.00
2022-08-27T23:01:49.464Z,14.20
2022-08-27T23:04:55.367Z,11.00
2022-08-27T23:07:59.881Z,16.00
2022-08-27T23:11:03.525Z,11.00
2022-08-27T23:14:08.513Z,12.80
2022-08-27T23:17:11.780Z,12.00
2022-08-27T23:20:16.799Z,16.40
2022-08-27T23:23:20.364Z,15.40
2022-08-27T23:26:41.261Z,12.00
2022-08-27T23:29:47.170Z,17.40
2022-08-27T23:32:53.816Z,16.40
2022-08-27T23:35:57.639Z,12.25
2022-08-27T23:39:00.921Z,13.75
2022-08-27T23:42:04.429Z,13.75
2022-08-27T23:45:12.485Z,17.00
2022-08-27T23:48:15.991Z,14.00
2022-08-27T23:51:19.268Z,15.00
2022-08-27T23:54:22.785Z,15.00
2022-08-27T23:57:26.436Z,12.40
